Time;durP1;ratioP1;P1;durP2;ratioP2;P2;SDS_P1;SDS_P2;PMS_P1;PMS_P2;Temp;Humidity;BMP_temperature;BMP_pressure;BME280_temperature;BME280_humidity;BME280_pressure;Samples;Min_cycle;Max_cycle;Signal;HPM_P1;HPM_P2
2023/03/09 00:01:18;;;;;;;0.80;0.70;;;;;;;-1.21;89.01;97416.16;5065808;28;20040;-37
2023/03/09 00:03:44;;;;;;;1.27;0.93;;;;;;;-1.43;88.91;97398.84;5066302;28;20044;-37
2023/03/09 00:06:09;;;;;;;1.48;1.10;;;;;;;-1.28;88.64;97418.00;5068447;28;20032;-36
2023/03/09 00:08:35;;;;;;;4.88;1.52;;;;;;;-1.30;88.75;97424.84;5034043;28;20098;-36
2023/03/09 00:11:04;;;;;;;2.08;1.27;;;;;;;-1.46;89.34;97403.16;5030349;28;20056;-36
2023/03/09 00:13:30;;;;;;;2.47;1.23;;;;;;;-1.38;89.28;97419.94;5063439;28;20028;-37
2023/03/09 00:15:56;;;;;;;3.15;1.50;;;;;;;-1.40;89.77;97425.94;5033384;28;20393;-37
2023/03/09 00:18:22;;;;;;;2.10;1.30;;;;;;;-1.43;89.68;97438.75;5083065;28;20473;-37
2023/03/09 00:20:48;;;;;;;3.58;1.85;;;;;;;-1.58;89.47;97411.09;5061762;28;20040;-36
2023/03/09 00:23:18;;;;;;;2.67;1.25;;;;;;;-1.84;90.57;97391.31;5068599;28;20037;-35
2023/03/09 00:25:45;;;;;;;1.58;0.95;;;;;;;-1.50;90.40;97425.31;5057410;28;20063;-36
2023/03/09 00:28:10;;;;;;;1.73;1.27;;;;;;;-1.49;90.34;97426.16;5068852;28;20570;-37
2023/03/09 00:30:38;;;;;;;1.77;0.93;;;;;;;-1.45;90.28;97446.44;5067136;28;20064;-36
2023/03/09 00:33:03;;;;;;;2.38;1.25;;;;;;;-1.37;89.88;97438.63;5067292;28;20060;-40
2023/03/09 00:35:30;;;;;;;1.92;1.17;;;;;;;-1.31;89.72;97429.09;5067193;28;20037;-36
2023/03/09 00:37:56;;;;;;;2.75;1.25;;;;;;;-1.23;90.33;97434.03;5034359;28;20094;-36
2023/03/09 00:40:21;;;;;;;3.15;1.70;;;;;;;-1.17;90.16;97456.00;5068474;28;20036;-35
2023/03/09 00:42:47;;;;;;;2.10;1.30;;;;;;;-1.15;89.11;97433.88;5067724;28;20040;-41
2023/03/09 00:45:14;;;;;;;2.65;1.15;;;;;;;-1.44;88.66;97378.47;5067033;28;20051;-36
2023/03/09 00:47:40;;;;;;;3.75;2.25;;;;;;;-1.11;87.75;97432.91;5083991;28;20044;-36
2023/03/09 00:50:07;;;;;;;1.88;1.15;;;;;;;-1.34;87.40;97397.78;5065277;28;20036;-36
2023/03/09 00:52:33;;;;;;;1.15;0.60;;;;;;;-1.07;87.20;97439.59;5069009;28;20036;-35
2023/03/09 00:54:59;;;;;;;2.90;1.08;;;;;;;-1.05;87.08;97443.81;5046241;28;20550;-36
2023/03/09 00:57:26;;;;;;;1.85;0.90;;;;;;;-1.02;86.76;97450.53;5073671;28;20044;-34
2023/03/09 00:59:53;;;;;;;2.95;1.63;;;;;;;-1.15;87.06;97410.94;5063713;28;20785;-37
2023/03/09 01:02:21;;;;;;;3.55;1.30;;;;;;;-0.98;87.24;97434.28;5066649;28;20516;-36
2023/03/09 01:04:47;;;;;;;4.25;1.77;;;;;;;-0.97;87.29;97444.44;5071110;28;20042;-38
2023/03/09 01:07:14;;;;;;;3.53;1.70;;;;;;;-0.96;86.93;97430.81;5078108;28;20044;-35
2023/03/09 01:09:41;;;;;;;2.72;1.17;;;;;;;-0.95;86.78;97449.50;5065605;28;20717;-36
2023/03/09 01:12:07;;;;;;;1.80;1.00;;;;;;;-0.96;86.25;97460.59;5065879;28;20484;-37
2023/03/09 01:14:34;;;;;;;2.67;1.58;;;;;;;-0.97;85.45;97447.00;5066214;28;20074;-35
2023/03/09 01:17:00;;;;;;;2.55;1.25;;;;;;;-0.97;85.33;97448.69;5066011;28;20048;-35
2023/03/09 01:19:26;;;;;;;3.42;1.23;;;;;;;-0.99;85.15;97447.88;5066065;28;20134;-36
2023/03/09 01:21:52;;;;;;;2.13;1.00;;;;;;;-1.04;84.99;97434.41;5062931;28;20090;-36
2023/03/09 01:24:18;;;;;;;2.55;1.30;;;;;;;-1.06;84.57;97437.03;5065444;28;20048;-37
2023/03/09 01:26:44;;;;;;;1.98;1.10;;;;;;;-1.14;84.95;97436.34;5065171;28;20044;-39
2023/03/09 01:29:10;;;;;;;6.82;1.50;;;;;;;-1.24;85.38;97445.09;5065725;28;20040;-36
2023/03/09 01:31:36;;;;;;;2.72;1.40;;;;;;;-1.32;85.55;97440.19;5066371;28;20522;-36
2023/03/09 01:34:02;;;;;;;4.85;1.70;;;;;;;-1.40;85.59;97442.06;5069778;28;20074;-36
2023/03/09 01:36:28;;;;;;;1.92;1.13;;;;;;;-1.43;85.49;97454.06;5077304;28;20032;-35
2023/03/09 01:38:54;;;;;;;2.53;1.20;;;;;;;-1.47;84.63;97437.16;5065252;28;20040;-35
2023/03/09 01:41:22;;;;;;;2.28;0.93;;;;;;;-1.51;84.90;97459.31;5098210;28;20079;-36
2023/03/09 01:43:50;;;;;;;2.05;1.30;;;;;;;-1.53;84.62;97455.97;5066584;28;20105;-35
2023/03/09 01:46:23;;;;;;;1.75;1.10;;;;;;;-1.55;84.24;97449.22;5066076;28;20052;-36
2023/03/09 01:48:56;;;;;;;2.30;1.33;;;;;;;-1.59;84.22;97461.19;5065696;28;20086;-36
2023/03/09 01:51:25;;;;;;;3.92;1.40;;;;;;;-1.60;84.14;97451.88;5064317;28;20504;-36
2023/03/09 01:53:51;;;;;;;2.25;1.42;;;;;;;-1.62;83.89;97440.06;5045699;28;20045;-37
2023/03/09 01:56:19;;;;;;;2.88;0.93;;;;;;;-1.63;84.19;97454.50;5060167;28;20044;-35
2023/03/09 01:58:46;;;;;;;1.05;0.80;;;;;;;-1.64;84.29;97446.88;5032321;28;20036;-36
2023/03/09 02:01:14;;;;;;;2.72;1.25;;;;;;;-1.67;84.90;97462.25;5075289;28;20503;-42
2023/03/09 02:03:44;;;;;;;3.08;1.50;;;;;;;-1.91;85.08;97418.59;5080902;28;20032;-35
2023/03/09 02:06:16;;;;;;;2.55;1.50;;;;;;;-1.73;84.69;97465.75;5065301;28;20040;-36
2023/03/09 02:09:22;;;;;;;4.43;1.25;;;;;;;-1.75;84.40;97473.41;5049450;28;20127;-35
2023/03/09 02:11:50;;;;;;;1.52;1.00;;;;;;;-1.79;84.22;97455.69;5032759;28;20139;-35
2023/03/09 02:14:16;;;;;;;3.60;1.13;;;;;;;-1.84;85.03;97465.13;5065771;28;20094;-36
2023/03/09 02:16:42;;;;;;;3.42;1.40;;;;;;;-1.87;85.75;97465.19;5065202;28;20046;-37
2023/03/09 02:19:16;;;;;;;3.22;1.35;;;;;;;-1.90;85.85;97466.09;5065131;28;20387;-36
2023/03/09 02:21:50;;;;;;;4.10;1.40;;;;;;;-1.91;85.71;97471.22;5032792;28;20036;-38
2023/03/09 02:24:42;;;;;;;1.80;0.82;;;;;;;-1.93;85.93;97483.13;5066074;28;20110;-43
2023/03/09 02:27:19;;;;;;;3.42;1.52;;;;;;;-1.98;85.49;97467.94;5066943;28;20504;-36
2023/03/09 02:29:46;;;;;;;2.03;1.25;;;;;;;-1.98;85.56;97484.94;5049457;28;20051;-36
2023/03/09 02:32:13;;;;;;;4.57;1.98;;;;;;;-2.02;86.10;97475.69;5049638;28;20048;-36
2023/03/09 02:34:39;;;;;;;1.40;1.00;;;;;;;-2.04;85.89;97500.34;5032291;28;20028;-35
2023/03/09 02:37:33;;;;;;;1.38;0.93;;;;;;;-2.05;85.43;97471.50;5049268;28;20036;-35
2023/03/09 02:40:15;;;;;;;4.93;1.40;;;;;;;-2.08;85.79;97485.97;5046597;28;20044;-35
2023/03/09 02:42:44;;;;;;;2.33;1.23;;;;;;;-2.12;85.86;97487.75;5048232;28;20051;-37
2023/03/09 02:45:12;;;;;;;10.90;1.58;;;;;;;-2.13;85.73;97507.28;5067866;28;20040;-35
2023/03/09 02:47:38;;;;;;;2.90;1.48;;;;;;;-2.15;85.49;97501.38;5028406;28;20071;-36
2023/03/09 02:50:09;;;;;;;3.42;1.48;;;;;;;-2.17;85.52;97510.75;5040759;28;20055;-35
2023/03/09 02:52:36;;;;;;;2.10;1.17;;;;;;;-2.34;85.25;97472.06;5068268;28;20544;-36
2023/03/09 02:55:04;;;;;;;2.38;1.23;;;;;;;-2.21;85.50;97503.22;5052108;28;20506;-34
2023/03/09 02:57:30;;;;;;;5.13;1.77;;;;;;;-2.41;85.80;97472.22;5070117;28;20036;-36
2023/03/09 02:59:56;;;;;;;6.05;1.35;;;;;;;-2.44;86.00;97497.69;5068074;28;20108;-34
2023/03/09 03:02:22;;;;;;;4.38;1.67;;;;;;;-2.28;86.29;97517.75;5069976;28;20534;-38
2023/03/09 03:04:50;;;;;;;3.33;1.83;;;;;;;-2.30;85.73;97511.00;5077558;28;20044;-35
2023/03/09 03:07:16;;;;;;;2.53;1.40;;;;;;;-2.32;85.80;97505.09;5055735;28;20056;-35
2023/03/09 03:09:42;;;;;;;2.72;1.27;;;;;;;-2.33;85.57;97506.81;5050714;28;20044;-36
2023/03/09 03:12:09;;;;;;;2.70;1.15;;;;;;;-2.36;85.37;97529.78;5068025;28;20101;-35
2023/03/09 03:14:35;;;;;;;2.25;1.58;;;;;;;-2.55;84.77;97487.69;5051375;28;20135;-34
2023/03/09 03:17:01;;;;;;;3.60;1.20;;;;;;;-2.41;84.79;97500.19;5068025;28;20466;-35
2023/03/09 03:19:27;;;;;;;2.13;0.82;;;;;;;-2.44;84.97;97502.78;5068978;28;20040;-37
2023/03/09 03:21:53;;;;;;;4.22;1.20;;;;;;;-2.48;84.83;97511.34;5068315;28;20047;-36
2023/03/09 03:24:19;;;;;;;2.83;1.15;;;;;;;-2.48;84.28;97516.41;5068225;28;20040;-36
2023/03/09 03:26:46;;;;;;;3.17;1.15;;;;;;;-2.50;84.39;97515.59;5066956;28;20052;-34
2023/03/09 03:29:17;;;;;;;1.92;1.30;;;;;;;-2.63;84.26;97540.41;5068159;28;20580;-35
2023/03/09 03:31:43;;;;;;;1.75;1.10;;;;;;;-2.56;84.00;97517.38;5067875;28;20116;-35
2023/03/09 03:34:09;;;;;;;1.83;0.90;;;;;;;-2.58;83.55;97526.75;5054064;28;20039;-35
2023/03/09 03:36:39;;;;;;;4.15;1.15;;;;;;;-2.56;82.90;97519.09;5083364;28;20068;-35
2023/03/09 03:39:05;;;;;;;1.45;1.00;;;;;;;-2.60;82.87;97517.47;5067508;28;20091;-35
2023/03/09 03:41:32;;;;;;;1.75;1.33;;;;;;;-2.79;83.15;97494.06;5071927;28;20523;-35
2023/03/09 03:44:01;;;;;;;2.47;1.20;;;;;;;-2.63;82.98;97525.16;5074364;28;20040;-40
2023/03/09 03:46:28;;;;;;;3.35;1.27;;;;;;;-2.65;82.82;97532.81;5051067;28;20192;-35
2023/03/09 03:48:54;;;;;;;1.52;1.05;;;;;;;-2.66;82.65;97526.03;5068444;28;20036;-35
2023/03/09 03:51:22;;;;;;;5.50;0.90;;;;;;;-2.66;82.33;97520.94;5050121;28;20032;-35
2023/03/09 03:53:50;;;;;;;3.57;1.10;;;;;;;-2.98;82.16;97482.50;5064994;28;20041;-35
2023/03/09 03:56:17;;;;;;;2.38;1.05;;;;;;;-2.70;82.03;97533.75;5069631;28;20531;-36
2023/03/09 03:58:45;;;;;;;0.82;0.45;;;;;;;-2.85;81.72;97503.50;5074998;28;20055;-36
2023/03/09 04:01:13;;;;;;;2.05;1.10;;;;;;;-2.89;81.37;97514.56;5074678;28;20042;-36
2023/03/09 04:03:39;;;;;;;1.30;0.70;;;;;;;-2.69;80.79;97548.13;5051456;28;20044;-34
2023/03/09 04:06:05;;;;;;;1.30;0.73;;;;;;;-2.68;79.46;97535.41;5050540;28;20037;-35
2023/03/09 04:08:32;;;;;;;3.72;0.77;;;;;;;-2.72;79.18;97532.94;5067734;28;20094;-35
2023/03/09 04:10:58;;;;;;;2.13;1.10;;;;;;;-2.72;79.56;97578.72;5084141;28;20109;-35
2023/03/09 04:13:24;;;;;;;0.98;0.80;;;;;;;-2.71;79.08;97548.16;5067544;28;20596;-36
2023/03/09 04:15:51;;;;;;;1.70;0.80;;;;;;;-2.93;79.32;97503.59;5046413;28;20093;-35
2023/03/09 04:18:17;;;;;;;1.35;0.90;;;;;;;-2.72;79.22;97549.00;5050951;28;20040;-34
2023/03/09 04:20:44;;;;;;;3.95;1.13;;;;;;;-2.73;78.96;97549.06;5067358;28;20074;-35
2023/03/09 04:23:10;;;;;;;4.57;1.65;;;;;;;-2.75;78.83;97549.06;5084478;28;20048;-34
2023/03/09 04:25:40;;;;;;;0.75;0.68;;;;;;;-2.76;79.16;97557.56;5049942;28;20067;-34
2023/03/09 04:28:06;;;;;;;1.70;1.10;;;;;;;-2.75;79.36;97550.78;5050849;28;20051;-35
2023/03/09 04:30:45;;;;;;;2.45;1.25;;;;;;;-2.90;79.48;97540.84;5065563;28;20465;-35
2023/03/09 04:33:12;;;;;;;2.70;0.90;;;;;;;-2.93;79.46;97525.66;5063291;28;20036;-35
2023/03/09 04:35:39;;;;;;;6.65;1.65;;;;;;;-2.76;79.43;97555.03;5067047;28;20032;-33
2023/03/09 04:38:11;;;;;;;2.33;1.20;;;;;;;-2.71;78.59;97570.19;5066829;28;20519;-35
2023/03/09 04:40:40;;;;;;;3.90;1.45;;;;;;;-2.69;78.08;97558.31;5050835;28;20061;-35
2023/03/09 04:43:06;;;;;;;4.28;1.10;;;;;;;-2.68;78.25;97553.22;5076679;28;20041;-36
2023/03/09 04:45:33;;;;;;;3.17;1.52;;;;;;;-2.63;78.20;97581.09;5049459;28;20052;-36
2023/03/09 04:48:00;;;;;;;3.90;1.70;;;;;;;-2.81;78.01;97536.47;5046911;28;20415;-35
2023/03/09 04:50:26;;;;;;;2.28;1.35;;;;;;;-2.63;78.06;97578.56;5067090;28;20040;-35
2023/03/09 04:52:57;;;;;;;2.72;1.08;;;;;;;-2.83;77.56;97542.44;5054391;28;20048;-36
2023/03/09 04:55:24;;;;;;;3.95;1.38;;;;;;;-2.60;77.73;97586.97;5066706;28;20176;-35
2023/03/09 04:57:53;;;;;;;2.30;1.13;;;;;;;-2.59;76.91;97605.63;5048164;28;20060;-40
2023/03/09 05:00:20;;;;;;;3.10;1.27;;;;;;;-2.77;76.95;97578.75;5066250;28;20048;-36
2023/03/09 05:02:47;;;;;;;3.15;0.95;;;;;;;-2.58;76.47;97603.06;5066684;28;20084;-36
2023/03/09 05:05:16;;;;;;;2.58;1.25;;;;;;;-2.56;76.67;97598.78;5049457;28;20037;-35
2023/03/09 05:07:43;;;;;;;1.90;0.80;;;;;;;-2.56;75.84;97608.94;5065964;28;20135;-36
2023/03/09 05:10:10;;;;;;;4.95;1.00;;;;;;;-2.64;75.37;97576.88;5065243;28;20530;-35
2023/03/09 05:12:39;;;;;;;2.13;1.02;;;;;;;-2.45;75.21;97610.47;5044729;28;20083;-34
2023/03/09 05:15:09;;;;;;;3.55;1.33;;;;;;;-2.40;74.11;97627.34;5067749;28;20603;-36
2023/03/09 05:17:35;;;;;;;1.52;0.98;;;;;;;-2.68;73.80;97548.13;5065260;28;20041;-35
2023/03/09 05:20:08;;;;;;;1.98;0.80;;;;;;;-2.32;73.21;97614.50;5064734;28;20040;-35
2023/03/09 05:22:37;;;;;;;2.55;0.93;;;;;;;-2.26;73.38;97610.16;5032414;28;20119;-34
2023/03/09 05:25:05;;;;;;;2.73;0.87;;;;;;;-2.18;73.17;97617.66;5031538;28;20036;-36
2023/03/09 05:27:31;;;;;;;1.65;1.00;;;;;;;-2.14;72.72;97625.22;5079316;28;20294;-35
2023/03/09 05:29:57;;;;;;;2.00;1.00;;;;;;;-2.31;72.39;97586.50;5071974;28;20097;-36
2023/03/09 05:32:23;;;;;;;0.80;0.70;;;;;;;-2.04;71.80;97618.25;5072838;28;20058;-36
2023/03/09 05:34:50;;;;;;;3.75;1.20;;;;;;;-1.98;71.52;97599.47;5051838;28;20044;-36
2023/03/09 05:37:17;;;;;;;1.42;0.82;;;;;;;-1.91;71.28;97607.00;5049429;28;20117;-36
2023/03/09 05:39:43;;;;;;;1.70;0.80;;;;;;;-1.76;70.82;97616.03;5048742;28;20618;-36
2023/03/09 05:42:10;;;;;;;2.17;1.00;;;;;;;-1.85;70.03;97586.53;5066625;28;20051;-35
2023/03/09 05:44:37;;;;;;;4.32;1.00;;;;;;;-1.61;69.25;97614.91;5049038;28;20040;-36
2023/03/09 05:47:04;;;;;;;1.48;0.98;;;;;;;-1.72;68.55;97593.03;5063473;28;20044;-35
2023/03/09 05:49:30;;;;;;;6.53;1.20;;;;;;;-1.48;68.68;97611.28;5056714;28;20500;-36
2023/03/09 05:51:57;;;;;;;2.55;1.15;;;;;;;-1.37;68.74;97612.75;5060073;28;20036;-36
2023/03/09 05:54:24;;;;;;;1.05;0.60;;;;;;;-1.35;67.57;97588.06;5048208;28;20045;-37
2023/03/09 05:56:56;;;;;;;4.35;1.25;;;;;;;-0.77;66.63;97642.06;5037350;28;20032;-36
2023/03/09 05:59:22;;;;;;;3.28;1.42;;;;;;;-0.57;65.71;97625.41;5055642;28;20052;-35
2023/03/09 06:01:49;;;;;;;3.80;0.80;;;;;;;-0.53;65.04;97613.44;5065154;28;20050;-35
2023/03/09 06:04:19;;;;;;;1.65;0.63;;;;;;;-0.42;65.44;97614.03;5080906;28;20055;-37
2023/03/09 06:06:50;;;;;;;1.10;0.60;;;;;;;-0.38;65.15;97636.06;5097828;28;20036;-35
2023/03/09 06:09:18;;;;;;;2.90;1.08;;;;;;;-0.48;64.04;97637.16;5032628;28;20148;-35
2023/03/09 06:11:45;;;;;;;2.08;1.00;;;;;;;-0.46;64.01;97648.13;5065956;28;20060;-36
2023/03/09 06:14:11;;;;;;;2.53;1.00;;;;;;;-0.55;63.12;97643.25;5063590;28;20044;-36
2023/03/09 06:16:40;;;;;;;2.53;1.00;;;;;;;-0.56;63.42;97633.91;5064865;28;20127;-36
2023/03/09 06:19:07;;;;;;;2.30;1.00;;;;;;;-0.52;63.63;97641.47;5065701;28;20044;-35
2023/03/09 06:21:34;;;;;;;3.90;0.98;;;;;;;-0.52;62.86;97640.63;5069603;28;20127;-35
2023/03/09 06:24:02;;;;;;;2.33;0.80;;;;;;;-0.39;63.10;97652.22;5052533;28;20041;-36
2023/03/09 06:26:28;;;;;;;1.08;0.80;;;;;;;-0.18;63.09;97676.41;5086204;28;20041;-35
2023/03/09 06:29:00;;;;;;;1.45;0.77;;;;;;;-0.28;62.08;97657.09;5072194;28;20037;-34
2023/03/09 06:31:27;;;;;;;2.35;1.13;;;;;;;-0.44;62.56;97646.41;5053184;28;20822;-34
2023/03/09 06:33:56;;;;;;;4.18;1.38;;;;;;;-0.34;62.51;97649.56;5085641;28;20036;-34
2023/03/09 06:36:23;;;;;;;2.03;1.10;;;;;;;-0.28;62.74;97659.63;5036214;28;20067;-35
2023/03/09 06:38:51;;;;;;;2.05;1.02;;;;;;;-0.21;62.99;97663.75;5070158;28;20318;-36
2023/03/09 06:41:31;;;;;;;3.05;1.15;;;;;;;-0.41;61.94;97633.56;5035561;28;20044;-36
2023/03/09 06:44:06;;;;;;;1.77;0.90;;;;;;;-0.28;61.43;97649.44;5058175;28;20048;-35
2023/03/09 06:46:34;;;;;;;2.17;1.02;;;;;;;-0.34;61.37;97675.94;5084107;28;20523;-36
2023/03/09 06:49:01;;;;;;;0.68;0.60;;;;;;;-0.37;61.24;97678.56;5086378;28;20040;-35
2023/03/09 06:51:29;;;;;;;2.13;1.00;;;;;;;-0.33;61.55;97662.31;5037114;28;20034;-37
2023/03/09 06:53:55;;;;;;;3.50;0.88;;;;;;;-0.23;61.69;97694.41;5036162;28;20081;-36
2023/03/09 06:56:26;;;;;;;2.20;1.20;;;;;;;-0.15;61.78;97686.53;5068422;28;20044;-36
2023/03/09 06:58:54;;;;;;;2.45;0.98;;;;;;;-0.05;61.53;97675.22;5069216;28;20043;-37
2023/03/09 07:01:20;;;;;;;2.20;0.88;;;;;;;0.21;61.26;97677.97;5102266;28;20106;-35
2023/03/09 07:03:47;;;;;;;1.15;0.77;;;;;;;0.34;61.33;97669.13;5069084;28;20491;-38
2023/03/09 07:06:13;;;;;;;4.43;1.30;;;;;;;0.76;62.03;97676.53;5068191;28;20537;-36
2023/03/09 07:08:39;;;;;;;1.27;0.77;;;;;;;0.63;60.98;97639.41;5068802;28;20139;-36
2023/03/09 07:11:05;;;;;;;2.38;0.90;;;;;;;0.87;61.07;97694.97;5070149;28;20053;-35
2023/03/09 07:13:32;;;;;;;3.95;1.30;;;;;;;1.03;60.44;97720.97;5069012;28;20052;-36
2023/03/09 07:16:01;;;;;;;2.17;1.00;;;;;;;0.97;60.06;97716.88;5069502;28;20110;-35
2023/03/09 07:18:27;;;;;;;11.57;1.05;;;;;;;0.87;59.50;97735.91;5068586;28;20048;-36
2023/03/09 07:20:53;;;;;;;2.33;0.77;;;;;;;0.66;59.66;97719.41;5070257;28;20047;-36
2023/03/09 07:23:19;;;;;;;2.25;1.17;;;;;;;0.60;60.11;97717.03;5069774;28;20041;-36
2023/03/09 07:25:45;;;;;;;1.30;0.82;;;;;;;0.61;57.27;97702.53;5051268;28;20095;-35
2023/03/09 07:28:11;;;;;;;2.13;0.80;;;;;;;0.84;57.49;97718.91;5068674;28;20044;-36
2023/03/09 07:30:37;;;;;;;2.65;1.00;;;;;;;1.44;57.90;97715.50;5069195;28;20045;-37
2023/03/09 07:33:04;;;;;;;1.58;0.70;;;;;;;1.73;55.94;97727.44;5068020;28;20067;-37
2023/03/09 07:35:29;;;;;;;1.65;0.70;;;;;;;1.25;56.44;97710.09;5069383;28;20040;-35
2023/03/09 07:37:55;;;;;;;1.77;0.90;;;;;;;1.03;57.02;97701.34;5069995;28;20055;-36
2023/03/09 07:40:21;;;;;;;1.23;0.80;;;;;;;1.11;57.02;97708.78;5069842;28;20571;-35
2023/03/09 07:42:52;;;;;;;1.85;0.80;;;;;;;1.18;55.81;97736.75;5069557;28;20064;-35
2023/03/09 07:45:41;;;;;;;5.68;1.17;;;;;;;1.15;57.66;97700.97;5020441;28;20136;-36
2023/03/09 07:48:08;;;;;;;1.45;0.80;;;;;;;1.10;57.21;97714.81;5048335;28;20492;-35
2023/03/09 07:50:34;;;;;;;3.45;0.80;;;;;;;0.94;56.77;97714.41;5049752;28;20049;-36
2023/03/09 07:53:00;;;;;;;3.13;0.63;;;;;;;0.96;57.48;97732.25;5064782;28;20037;-35
2023/03/09 07:55:26;;;;;;;1.77;0.60;;;;;;;1.05;57.08;97711.53;5060874;28;20093;-35
2023/03/09 07:57:53;;;;;;;1.42;0.55;;;;;;;1.21;58.42;97699.97;5084951;28;20040;-36
2023/03/09 08:00:22;;;;;;;2.78;0.52;;;;;;;1.25;56.88;97717.78;5069079;28;20148;-35
2023/03/09 08:02:49;;;;;;;1.98;1.10;;;;;;;1.21;56.36;97730.69;5067817;28;20074;-35
2023/03/09 08:05:15;;;;;;;1.25;0.60;;;;;;;1.85;56.55;97728.78;5066667;28;20135;-35
2023/03/09 08:07:42;;;;;;;2.38;0.90;;;;;;;2.76;56.70;97713.78;5067781;28;20127;-35
2023/03/09 08:10:09;;;;;;;13.75;1.33;;;;;;;2.84;55.32;97721.22;5067683;28;20039;-37
2023/03/09 08:12:35;;;;;;;1.05;0.75;;;;;;;2.85;56.92;97731.44;5068913;28;20056;-37
2023/03/09 08:15:01;;;;;;;2.28;0.93;;;;;;;2.29;55.93;97727.38;5050544;28;20037;-34
2023/03/09 08:17:29;;;;;;;3.00;1.10;;;;;;;1.80;57.80;97676.84;5083853;28;20032;-37
2023/03/09 08:19:54;;;;;;;2.47;0.85;;;;;;;2.25;59.88;97718.94;5068940;28;20522;-37
2023/03/09 08:22:20;;;;;;;6.97;1.15;;;;;;;2.31;59.92;97728.16;5050825;28;20049;-36
2023/03/09 08:24:46;;;;;;;1.92;1.02;;;;;;;2.26;59.48;97718.03;5068135;28;20044;-36
2023/03/09 08:27:12;;;;;;;4.55;1.02;;;;;;;2.12;57.69;97731.31;5068793;28;20530;-35
2023/03/09 08:29:38;;;;;;;1.52;0.80;;;;;;;1.95;57.54;97728.44;5067401;28;20582;-35
2023/03/09 08:32:06;;;;;;;2.05;0.80;;;;;;;1.75;57.03;97691.53;5067434;28;20067;-35
2023/03/09 08:34:32;;;;;;;0.60;0.40;;;;;;;1.77;55.15;97710.25;5066819;28;20104;-36
2023/03/09 08:36:58;;;;;;;1.27;0.70;;;;;;;1.89;54.94;97709.84;5068658;28;20120;-35
2023/03/09 08:39:24;;;;;;;0.65;0.40;;;;;;;2.05;55.72;97713.63;5068246;28;20203;-36
2023/03/09 08:41:50;;;;;;;2.67;1.20;;;;;;;2.11;55.26;97728.78;5068537;28;20093;-37
2023/03/09 08:44:16;;;;;;;1.33;0.85;;;;;;;2.09;54.47;97700.66;5068191;28;20427;-36
2023/03/09 08:46:42;;;;;;;0.80;0.50;;;;;;;2.26;53.78;97722.34;5068447;28;20048;-36
2023/03/09 08:49:08;;;;;;;1.80;1.00;;;;;;;2.23;55.25;97717.31;5066831;28;20079;-36
2023/03/09 08:51:34;;;;;;;3.70;1.10;;;;;;;2.44;56.51;97699.50;5068271;28;20381;-36
2023/03/09 08:54:00;;;;;;;3.65;1.23;;;;;;;2.67;57.43;97700.47;5068676;28;20047;-36
2023/03/09 08:56:26;;;;;;;2.17;0.70;;;;;;;2.47;56.16;97680.59;5068300;28;20516;-36
2023/03/09 08:58:52;;;;;;;2.85;0.70;;;;;;;2.52;56.57;97704.34;5066215;28;20138;-36
2023/03/09 09:01:18;;;;;;;3.95;0.85;;;;;;;2.36;54.48;97704.03;5068277;28;20051;-36
2023/03/09 09:03:44;;;;;;;2.30;0.77;;;;;;;2.45;55.45;97700.34;5066739;28;20044;-36
2023/03/09 09:06:12;;;;;;;2.38;0.63;;;;;;;2.57;56.41;97697.34;5068104;28;20621;-36
2023/03/09 09:08:40;;;;;;;2.35;0.70;;;;;;;2.30;53.92;97677.78;5067826;28;20036;-36
2023/03/09 09:11:14;;;;;;;1.60;0.70;;;;;;;2.44;54.15;97696.09;5067892;28;20105;-36
2023/03/09 09:13:40;;;;;;;0.73;0.45;;;;;;;2.56;53.41;97695.69;5066439;28;20036;-35
2023/03/09 09:16:08;;;;;;;1.45;0.80;;;;;;;2.50;52.70;97688.22;5083362;28;20688;-34
2023/03/09 09:18:38;;;;;;;1.02;0.60;;;;;;;2.73;54.25;97689.94;5067446;28;20028;-35
2023/03/09 09:21:07;;;;;;;2.40;1.17;;;;;;;2.87;55.06;97669.81;5068026;28;20033;-36
2023/03/09 09:23:35;;;;;;;1.33;0.40;;;;;;;3.13;55.15;97692.78;5049908;28;20040;-36
2023/03/09 09:26:01;;;;;;;2.38;0.85;;;;;;;3.26;56.98;97690.59;5066367;28;20032;-37
2023/03/09 09:28:27;;;;;;;2.17;0.75;;;;;;;3.46;56.85;97711.22;5067276;28;20422;-37
2023/03/09 09:30:54;;;;;;;0.63;0.50;;;;;;;3.23;53.41;97690.72;5067433;28;20036;-36
2023/03/09 09:33:20;;;;;;;0.95;0.55;;;;;;;3.26;53.56;97686.31;5066553;28;20036;-36
2023/03/09 09:36:00;;;;;;;1.33;0.80;;;;;;;3.20;51.80;97699.34;5067723;28;20066;-37
2023/03/09 09:38:26;;;;;;;;;;;;;;;2.95;49.95;97684.03;5067058;28;20086;-36
2023/03/09 09:40:58;;;;;;;2.83;0.50;;;;;;;2.89;52.74;97663.72;5067194;28;19947;-38
2023/03/09 09:43:24;;;;;;;4.40;0.90;;;;;;;2.80;51.09;97681.16;5082981;28;20044;-38
2023/03/09 09:45:53;;;;;;;1.80;0.80;;;;;;;2.70;52.03;97682.38;5066709;28;20045;-37
2023/03/09 09:48:19;;;;;;;2.57;0.77;;;;;;;2.70;52.40;97693.47;5066372;28;20044;-36
2023/03/09 09:50:49;;;;;;;2.25;1.00;;;;;;;2.62;52.72;97680.06;5067631;28;20052;-36
2023/03/09 09:53:22;;;;;;;4.05;0.68;;;;;;;2.61;52.97;97678.41;5066418;28;20033;-38
2023/03/09 09:55:50;;;;;;;1.45;0.80;;;;;;;2.51;53.56;97666.81;5068850;28;20423;-35
2023/03/09 09:58:22;;;;;;;3.42;0.80;;;;;;;2.49;54.37;97695.06;5053459;28;20602;-36
2023/03/09 10:00:50;;;;;;;2.55;0.90;;;;;;;2.27;52.56;97671.03;5070217;28;20033;-37
2023/03/09 10:03:27;;;;;;;2.60;1.17;;;;;;;2.25;52.94;97700.19;5070471;28;20510;-36
2023/03/09 10:06:12;;;;;;;2.50;0.77;;;;;;;2.09;52.26;97672.47;5069776;28;20075;-35
2023/03/09 10:08:57;;;;;;;1.80;0.70;;;;;;;2.23;54.04;97700.22;5071455;28;20106;-37
2023/03/09 10:11:27;;;;;;;4.28;1.17;;;;;;;2.26;54.44;97679.59;5070022;28;20049;-35
2023/03/09 10:13:56;;;;;;;;;;;;;;;2.29;54.59;97687.22;5070479;28;20523;-36
2023/03/09 10:16:26;;;;;;;0.95;0.50;;;;;;;2.29;56.13;97694.91;5086207;28;19924;-36
2023/03/09 10:19:07;;;;;;;2.13;0.80;;;;;;;2.21;54.41;97690.88;5050806;28;20102;-38
2023/03/09 10:21:46;;;;;;;0.88;0.50;;;;;;;2.15;53.56;97694.50;5052659;28;20419;-36
2023/03/09 10:24:21;;;;;;;2.40;0.73;;;;;;;2.01;54.43;97689.81;5070771;28;20041;-36
2023/03/09 10:26:59;;;;;;;1.63;0.50;;;;;;;1.89;53.88;97700.44;5086003;28;20047;-36
2023/03/09 10:30:07;;;;;;;1.50;0.60;;;;;;;1.83;54.24;97684.47;5069295;28;20055;-40
2023/03/09 10:32:35;;;;;;;1.95;0.45;;;;;;;1.88;56.56;97675.75;5028181;28;20504;-36
2023/03/09 10:35:33;;;;;;;0.50;0.40;;;;;;;1.84;55.29;97679.25;5011590;28;20472;-37
2023/03/09 10:37:59;;;;;;;7.45;0.90;;;;;;;1.75;54.60;97668.47;5012304;28;20680;-35
2023/03/09 10:40:35;;;;;;;0.60;0.50;;;;;;;1.62;56.20;97668.03;5028416;28;20037;-36
2023/03/09 10:43:01;;;;;;;3.95;0.82;;;;;;;1.42;55.94;97655.81;4995913;28;20136;-36
2023/03/09 10:45:27;;;;;;;1.90;0.60;;;;;;;1.44;56.12;97671.16;5010956;28;20449;-37
2023/03/09 10:48:04;;;;;;;1.45;0.52;;;;;;;1.21;56.62;97643.66;4995741;28;20042;-36
2023/03/09 10:50:32;;;;;;;0.57;0.43;;;;;;;1.27;57.00;97685.28;5012149;28;20508;-36
2023/03/09 10:53:21;;;;;;;2.92;0.57;;;;;;;1.17;58.00;97688.16;5028271;28;20065;-37
2023/03/09 10:55:47;;;;;;;2.20;0.73;;;;;;;0.87;58.35;97648.94;5027743;28;20052;-35
2023/03/09 10:58:18;;;;;;;1.58;0.60;;;;;;;1.08;59.70;97668.78;5027937;28;20045;-37
2023/03/09 11:01:16;;;;;;;2.05;0.60;;;;;;;1.24;60.89;97667.47;5027971;28;20041;-36
2023/03/09 11:03:43;;;;;;;2.10;0.70;;;;;;;1.19;60.44;97674.44;5053588;28;20053;-37
2023/03/09 11:06:12;;;;;;;1.52;0.60;;;;;;;1.11;60.92;97670.41;5068992;28;20542;-36
2023/03/09 11:08:41;;;;;;;1.23;0.82;;;;;;;1.13;62.98;97664.38;5070463;28;20161;-36
2023/03/09 11:11:20;;;;;;;1.33;0.60;;;;;;;1.02;62.83;97671.53;5068888;28;20190;-35
2023/03/09 11:13:46;;;;;;;1.48;0.70;;;;;;;0.82;63.64;97672.09;5048570;28;20123;-37
2023/03/09 11:16:28;;;;;;;1.25;0.65;;;;;;;0.59;64.79;97648.03;5050244;28;20059;-37
2023/03/09 11:19:15;;;;;;;2.33;1.00;;;;;;;0.51;66.24;97642.28;5050232;28;20110;-36
2023/03/09 11:22:06;;;;;;;2.00;0.98;;;;;;;0.72;67.74;97668.13;5032106;28;20222;-37
2023/03/09 11:24:39;;;;;;;1.83;0.63;;;;;;;0.89;70.05;97659.13;5060938;28;20383;-36
2023/03/09 11:27:06;;;;;;;1.80;0.90;;;;;;;0.90;70.92;97671.03;5052024;28;20070;-37
2023/03/09 11:29:57;;;;;;;2.58;1.27;;;;;;;0.75;71.45;97668.03;5068362;28;20040;-37
2023/03/09 11:32:23;;;;;;;1.50;0.95;;;;;;;0.31;71.96;97613.00;5068490;28;20044;-38
2023/03/09 11:34:49;;;;;;;2.55;1.20;;;;;;;0.65;73.37;97669.16;5068937;28;20036;-36
2023/03/09 11:37:17;;;;;;;5.60;0.90;;;;;;;0.77;75.02;97658.59;5069597;28;20056;-37
2023/03/09 11:40:14;;;;;;;5.00;1.23;;;;;;;0.63;75.90;97630.00;5068390;28;20033;-35
2023/03/09 11:42:43;;;;;;;2.40;1.05;;;;;;;0.82;76.88;97666.97;5068408;28;20139;-36
2023/03/09 11:45:24;;;;;;;4.75;1.40;;;;;;;0.69;76.49;97663.06;5068846;28;20139;-36